RJTA(METAR)
12/04 19:00
METAR RJTA 041000Z 35014KT 9999 FEW030 13/M00 Q1018 RMK 1CU030
A3008=
戻る
トップページへ戻る
IMOC Co,.Ltd.